Dillon, Illinois
Current Conditions -  °F | °C
As of 4:54 PM on Friday 31 Oct 2014 (Local Time) from KPIA Reporting Station
Clear Clear  
Wind Chill: 36°   Ceiling: Unl
Heat Index: 43°   Visibility: 10mi
Dew Point: 19°   Wind: 13mph
Humidity: 38%   Direction: 10°N
Pressure: 30.32"   Gusts: 25mph
Location:  40.4817°N, 89.4923°W
Report Text: KPIA 312154Z AUTO 01011G22KT 10SM CLR 06/M07 A3032 RMK AO2 SLP271 T00611072 TSNO
Loading
Personal Weather Stations






























Interactive Weather Map
Tropical Storm Tracking
New forecast layout! Learn more

10-Day Weather Forecast

Advertisements
Track Severe Weather on mobile